sensor_id;sensor_type;location;lat;lon;timestamp;P1;durP1;ratioP1;P2;durP2;ratioP2
64029;SDS011;50277;52.064;4.492;2022-11-22T00:01:14;15.32;;;7.38;;
64029;SDS011;50277;52.064;4.492;2022-11-22T00:03:40;18.55;;;6.38;;
64029;SDS011;50277;52.064;4.492;2022-11-22T00:06:05;18.55;;;7.10;;
64029;SDS011;50277;52.064;4.492;2022-11-22T00:08:30;14.02;;;6.38;;
64029;SDS011;50277;52.064;4.492;2022-11-22T00:10:57;13.75;;;7.20;;
64029;SDS011;50277;52.064;4.492;2022-11-22T00:13:22;16.15;;;6.53;;
64029;SDS011;50277;52.064;4.492;2022-11-22T00:15:57;13.35;;;6.55;;
64029;SDS011;50277;52.064;4.492;2022-11-22T00:18:24;14.88;;;6.25;;
64029;SDS011;50277;52.064;4.492;2022-11-22T00:20:49;12.20;;;6.47;;
64029;SDS011;50277;52.064;4.492;2022-11-22T00:23:14;21.02;;;6.45;;
64029;SDS011;50277;52.064;4.492;2022-11-22T00:25:40;16.38;;;6.30;;
64029;SDS011;50277;52.064;4.492;2022-11-22T00:28:05;13.13;;;5.80;;
64029;SDS011;50277;52.064;4.492;2022-11-22T00:30:30;14.02;;;6.30;;
64029;SDS011;50277;52.064;4.492;2022-11-22T00:32:56;9.93;;;6.15;;
64029;SDS011;50277;52.064;4.492;2022-11-22T00:35:21;13.48;;;6.40;;
64029;SDS011;50277;52.064;4.492;2022-11-22T00:37:46;14.55;;;6.45;;
64029;SDS011;50277;52.064;4.492;2022-11-22T00:40:12;15.98;;;6.45;;
64029;SDS011;50277;52.064;4.492;2022-11-22T00:42:37;10.48;;;6.28;;
64029;SDS011;50277;52.064;4.492;2022-11-22T00:45:02;16.30;;;6.07;;
64029;SDS011;50277;52.064;4.492;2022-11-22T00:47:28;13.30;;;6.22;;
64029;SDS011;50277;52.064;4.492;2022-11-22T00:49:53;19.58;;;6.65;;
64029;SDS011;50277;52.064;4.492;2022-11-22T00:52:18;18.90;;;5.85;;
64029;SDS011;50277;52.064;4.492;2022-11-22T00:54:44;10.63;;;5.30;;
64029;SDS011;50277;52.064;4.492;2022-11-22T00:57:09;16.58;;;5.93;;
64029;SDS011;50277;52.064;4.492;2022-11-22T00:59:35;14.00;;;6.07;;
64029;SDS011;50277;52.064;4.492;2022-11-22T01:02:00;16.70;;;5.60;;
64029;SDS011;50277;52.064;4.492;2022-11-22T01:04:25;14.85;;;5.30;;
64029;SDS011;50277;52.064;4.492;2022-11-22T01:06:51;15.32;;;5.05;;
64029;SDS011;50277;52.064;4.492;2022-11-22T01:09:18;19.25;;;5.05;;
64029;SDS011;50277;52.064;4.492;2022-11-22T01:11:44;17.30;;;4.63;;
64029;SDS011;50277;52.064;4.492;2022-11-22T01:14:10;19.08;;;5.38;;
64029;SDS011;50277;52.064;4.492;2022-11-22T01:16:36;17.27;;;6.93;;
64029;SDS011;50277;52.064;4.492;2022-11-22T01:19:01;16.48;;;7.05;;
64029;SDS011;50277;52.064;4.492;2022-11-22T01:21:27;18.00;;;6.25;;
64029;SDS011;50277;52.064;4.492;2022-11-22T01:23:52;10.40;;;4.35;;
64029;SDS011;50277;52.064;4.492;2022-11-22T01:26:17;19.42;;;5.07;;
64029;SDS011;50277;52.064;4.492;2022-11-22T01:28:42;14.05;;;4.50;;
64029;SDS011;50277;52.064;4.492;2022-11-22T01:31:08;17.90;;;5.13;;
64029;SDS011;50277;52.064;4.492;2022-11-22T01:33:33;13.10;;;4.03;;
64029;SDS011;50277;52.064;4.492;2022-11-22T01:35:59;12.60;;;3.70;;
64029;SDS011;50277;52.064;4.492;2022-11-22T01:38:24;16.40;;;4.63;;
64029;SDS011;50277;52.064;4.492;2022-11-22T01:40:49;15.65;;;4.20;;
64029;SDS011;50277;52.064;4.492;2022-11-22T01:43:16;14.43;;;3.75;;
64029;SDS011;50277;52.064;4.492;2022-11-22T01:45:44;12.68;;;3.45;;
64029;SDS011;50277;52.064;4.492;2022-11-22T01:50:37;16.13;;;3.60;;
64029;SDS011;50277;52.064;4.492;2022-11-22T01:56:00;24.00;;;4.65;;
64029;SDS011;50277;52.064;4.492;2022-11-22T01:58:29;11.77;;;3.60;;
64029;SDS011;50277;52.064;4.492;2022-11-22T02:00:56;23.35;;;4.15;;
64029;SDS011;50277;52.064;4.492;2022-11-22T02:03:21;16.58;;;3.75;;
64029;SDS011;50277;52.064;4.492;2022-11-22T02:05:47;10.52;;;3.30;;
64029;SDS011;50277;52.064;4.492;2022-11-22T02:08:18;13.35;;;3.72;;
64029;SDS011;50277;52.064;4.492;2022-11-22T02:10:48;20.45;;;3.42;;
64029;SDS011;50277;52.064;4.492;2022-11-22T02:13:16;23.02;;;3.70;;
64029;SDS011;50277;52.064;4.492;2022-11-22T02:15:43;22.23;;;4.40;;
64029;SDS011;50277;52.064;4.492;2022-11-22T02:18:09;19.17;;;3.70;;
64029;SDS011;50277;52.064;4.492;2022-11-22T02:20:34;20.70;;;3.42;;
64029;SDS011;50277;52.064;4.492;2022-11-22T02:23:02;15.98;;;3.53;;
64029;SDS011;50277;52.064;4.492;2022-11-22T02:25:53;19.70;;;3.42;;
64029;SDS011;50277;52.064;4.492;2022-11-22T02:28:22;14.05;;;2.90;;
64029;SDS011;50277;52.064;4.492;2022-11-22T02:30:47;15.75;;;3.53;;
64029;SDS011;50277;52.064;4.492;2022-11-22T02:33:13;12.93;;;3.85;;
64029;SDS011;50277;52.064;4.492;2022-11-22T02:35:38;16.48;;;3.20;;
64029;SDS011;50277;52.064;4.492;2022-11-22T02:38:12;15.60;;;3.63;;
64029;SDS011;50277;52.064;4.492;2022-11-22T02:40:43;17.08;;;4.07;;
64029;SDS011;50277;52.064;4.492;2022-11-22T02:43:12;17.95;;;3.85;;
64029;SDS011;50277;52.064;4.492;2022-11-22T02:45:40;21.02;;;3.78;;
64029;SDS011;50277;52.064;4.492;2022-11-22T02:48:07;14.43;;;2.85;;
64029;SDS011;50277;52.064;4.492;2022-11-22T02:50:37;19.02;;;3.40;;
64029;SDS011;50277;52.064;4.492;2022-11-22T02:53:03;17.05;;;2.95;;
64029;SDS011;50277;52.064;4.492;2022-11-22T02:55:29;15.90;;;3.45;;
64029;SDS011;50277;52.064;4.492;2022-11-22T02:57:54;17.95;;;3.35;;
64029;SDS011;50277;52.064;4.492;2022-11-22T03:00:19;11.57;;;2.78;;
64029;SDS011;50277;52.064;4.492;2022-11-22T03:02:45;11.40;;;2.70;;
64029;SDS011;50277;52.064;4.492;2022-11-22T03:05:10;19.95;;;3.30;;
64029;SDS011;50277;52.064;4.492;2022-11-22T03:07:35;14.65;;;3.38;;
64029;SDS011;50277;52.064;4.492;2022-11-22T03:10:01;12.45;;;3.30;;
64029;SDS011;50277;52.064;4.492;2022-11-22T03:12:26;14.63;;;3.03;;
64029;SDS011;50277;52.064;4.492;2022-11-22T03:14:51;9.85;;;2.72;;
64029;SDS011;50277;52.064;4.492;2022-11-22T03:17:17;12.63;;;2.88;;
64029;SDS011;50277;52.064;4.492;2022-11-22T03:19:42;7.97;;;2.63;;
64029;SDS011;50277;52.064;4.492;2022-11-22T03:22:07;12.50;;;3.40;;
64029;SDS011;50277;52.064;4.492;2022-11-22T03:24:33;13.38;;;2.97;;
64029;SDS011;50277;52.064;4.492;2022-11-22T03:26:58;12.65;;;3.38;;
64029;SDS011;50277;52.064;4.492;2022-11-22T03:29:23;16.33;;;3.70;;
64029;SDS011;50277;52.064;4.492;2022-11-22T03:31:49;13.25;;;2.63;;
64029;SDS011;50277;52.064;4.492;2022-11-22T03:34:14;15.18;;;2.92;;
64029;SDS011;50277;52.064;4.492;2022-11-22T03:36:39;11.52;;;2.53;;
64029;SDS011;50277;52.064;4.492;2022-11-22T03:39:05;12.70;;;2.50;;
64029;SDS011;50277;52.064;4.492;2022-11-22T03:41:30;13.18;;;2.60;;
64029;SDS011;50277;52.064;4.492;2022-11-22T03:43:55;10.63;;;2.72;;
64029;SDS011;50277;52.064;4.492;2022-11-22T03:46:21;16.42;;;2.83;;
64029;SDS011;50277;52.064;4.492;2022-11-22T03:48:46;17.13;;;2.90;;
64029;SDS011;50277;52.064;4.492;2022-11-22T03:51:11;11.35;;;3.00;;
64029;SDS011;50277;52.064;4.492;2022-11-22T03:53:37;13.45;;;2.55;;
64029;SDS011;50277;52.064;4.492;2022-11-22T03:56:02;11.93;;;3.08;;
64029;SDS011;50277;52.064;4.492;2022-11-22T03:58:28;12.52;;;2.97;;
64029;SDS011;50277;52.064;4.492;2022-11-22T04:00:54;14.93;;;2.40;;
64029;SDS011;50277;52.064;4.492;2022-11-22T04:03:20;10.95;;;2.83;;
64029;SDS011;50277;52.064;4.492;2022-11-22T04:05:46;14.77;;;3.10;;
64029;SDS011;50277;52.064;4.492;2022-11-22T04:08:11;10.13;;;2.40;;
64029;SDS011;50277;52.064;4.492;2022-11-22T04:10:37;9.27;;;2.08;;
64029;SDS011;50277;52.064;4.492;2022-11-22T04:13:02;14.88;;;2.53;;
64029;SDS011;50277;52.064;4.492;2022-11-22T04:15:27;10.85;;;2.40;;
64029;SDS011;50277;52.064;4.492;2022-11-22T04:17:53;17.95;;;2.97;;
64029;SDS011;50277;52.064;4.492;2022-11-22T04:20:23;9.73;;;2.75;;
64029;SDS011;50277;52.064;4.492;2022-11-22T04:23:10;10.23;;;2.35;;
64029;SDS011;50277;52.064;4.492;2022-11-22T04:25:39;14.07;;;2.70;;
64029;SDS011;50277;52.064;4.492;2022-11-22T04:28:12;9.18;;;2.35;;
64029;SDS011;50277;52.064;4.492;2022-11-22T04:30:38;9.70;;;2.58;;
64029;SDS011;50277;52.064;4.492;2022-11-22T04:33:22;12.18;;;2.70;;
64029;SDS011;50277;52.064;4.492;2022-11-22T04:35:48;7.93;;;2.00;;
64029;SDS011;50277;52.064;4.492;2022-11-22T04:38:14;16.90;;;3.17;;
64029;SDS011;50277;52.064;4.492;2022-11-22T04:40:40;9.68;;;2.33;;
64029;SDS011;50277;52.064;4.492;2022-11-22T04:43:06;8.27;;;2.35;;
64029;SDS011;50277;52.064;4.492;2022-11-22T04:45:50;13.32;;;3.15;;
64029;SDS011;50277;52.064;4.492;2022-11-22T04:48:16;12.60;;;2.67;;
64029;SDS011;50277;52.064;4.492;2022-11-22T04:50:42;10.75;;;3.38;;
64029;SDS011;50277;52.064;4.492;2022-11-22T04:53:26;7.68;;;2.63;;
64029;SDS011;50277;52.064;4.492;2022-11-22T04:55:53;10.68;;;2.85;;
64029;SDS011;50277;52.064;4.492;2022-11-22T04:58:18;6.90;;;2.10;;
64029;SDS011;50277;52.064;4.492;2022-11-22T05:00:44;15.77;;;3.28;;
64029;SDS011;50277;52.064;4.492;2022-11-22T05:03:10;14.05;;;2.58;;
64029;SDS011;50277;52.064;4.492;2022-11-22T05:05:36;7.00;;;2.40;;
64029;SDS011;50277;52.064;4.492;2022-11-22T05:08:03;11.43;;;2.53;;
64029;SDS011;50277;52.064;4.492;2022-11-22T05:10:30;8.88;;;2.15;;
64029;SDS011;50277;52.064;4.492;2022-11-22T05:13:16;8.30;;;2.60;;
64029;SDS011;50277;52.064;4.492;2022-11-22T05:15:41;14.35;;;3.10;;
64029;SDS011;50277;52.064;4.492;2022-11-22T05:18:07;9.27;;;2.60;;
64029;SDS011;50277;52.064;4.492;2022-11-22T05:20:32;7.50;;;2.53;;
64029;SDS011;50277;52.064;4.492;2022-11-22T05:22:57;15.57;;;2.88;;
64029;SDS011;50277;52.064;4.492;2022-11-22T05:25:41;10.20;;;2.30;;
64029;SDS011;50277;52.064;4.492;2022-11-22T05:28:07;7.93;;;2.45;;
64029;SDS011;50277;52.064;4.492;2022-11-22T05:30:32;8.27;;;2.30;;
64029;SDS011;50277;52.064;4.492;2022-11-22T05:32:57;10.35;;;2.63;;
64029;SDS011;50277;52.064;4.492;2022-11-22T05:35:23;7.80;;;2.60;;
64029;SDS011;50277;52.064;4.492;2022-11-22T05:37:48;9.32;;;2.33;;
64029;SDS011;50277;52.064;4.492;2022-11-22T05:40:13;9.38;;;2.90;;
64029;SDS011;50277;52.064;4.492;2022-11-22T05:42:39;5.40;;;2.20;;
64029;SDS011;50277;52.064;4.492;2022-11-22T05:45:04;10.77;;;2.95;;
64029;SDS011;50277;52.064;4.492;2022-11-22T05:47:32;7.85;;;2.47;;
64029;SDS011;50277;52.064;4.492;2022-11-22T05:49:59;7.65;;;2.30;;
64029;SDS011;50277;52.064;4.492;2022-11-22T05:52:24;7.10;;;2.58;;
64029;SDS011;50277;52.064;4.492;2022-11-22T05:54:49;6.90;;;3.00;;
64029;SDS011;50277;52.064;4.492;2022-11-22T05:57:15;8.10;;;2.85;;
64029;SDS011;50277;52.064;4.492;2022-11-22T05:59:40;12.55;;;2.55;;
64029;SDS011;50277;52.064;4.492;2022-11-22T06:02:05;5.82;;;2.53;;
64029;SDS011;50277;52.064;4.492;2022-11-22T06:04:31;11.10;;;2.78;;
64029;SDS011;50277;52.064;4.492;2022-11-22T06:06:56;10.40;;;3.08;;
64029;SDS011;50277;52.064;4.492;2022-11-22T06:09:21;6.82;;;3.10;;
64029;SDS011;50277;52.064;4.492;2022-11-22T06:11:47;12.20;;;3.13;;
64029;SDS011;50277;52.064;4.492;2022-11-22T06:14:12;7.57;;;3.55;;
64029;SDS011;50277;52.064;4.492;2022-11-22T06:16:37;12.77;;;4.00;;
64029;SDS011;50277;52.064;4.492;2022-11-22T06:19:03;16.85;;;3.13;;
64029;SDS011;50277;52.064;4.492;2022-11-22T06:21:28;6.68;;;3.50;;
64029;SDS011;50277;52.064;4.492;2022-11-22T06:23:53;12.48;;;3.53;;
64029;SDS011;50277;52.064;4.492;2022-11-22T06:26:20;11.27;;;4.03;;
64029;SDS011;50277;52.064;4.492;2022-11-22T06:28:47;7.93;;;3.65;;
64029;SDS011;50277;52.064;4.492;2022-11-22T06:31:16;8.40;;;3.75;;
64029;SDS011;50277;52.064;4.492;2022-11-22T06:33:42;9.65;;;3.95;;
64029;SDS011;50277;52.064;4.492;2022-11-22T06:36:09;6.70;;;3.10;;
64029;SDS011;50277;52.064;4.492;2022-11-22T06:38:39;10.38;;;3.80;;
64029;SDS011;50277;52.064;4.492;2022-11-22T06:41:09;7.32;;;3.67;;
64029;SDS011;50277;52.064;4.492;2022-11-22T06:43:36;10.32;;;3.40;;
64029;SDS011;50277;52.064;4.492;2022-11-22T06:46:03;14.57;;;4.10;;
64029;SDS011;50277;52.064;4.492;2022-11-22T06:48:29;11.52;;;4.10;;
64029;SDS011;50277;52.064;4.492;2022-11-22T06:51:00;8.97;;;3.40;;
64029;SDS011;50277;52.064;4.492;2022-11-22T06:53:27;10.35;;;3.65;;
64029;SDS011;50277;52.064;4.492;2022-11-22T06:56:06;10.32;;;3.78;;
64029;SDS011;50277;52.064;4.492;2022-11-22T06:58:33;8.43;;;3.13;;
64029;SDS011;50277;52.064;4.492;2022-11-22T07:01:09;11.40;;;3.20;;
64029;SDS011;50277;52.064;4.492;2022-11-22T07:03:36;14.45;;;3.20;;
64029;SDS011;50277;52.064;4.492;2022-11-22T07:06:03;16.35;;;3.90;;
64029;SDS011;50277;52.064;4.492;2022-11-22T07:08:29;10.05;;;3.40;;
64029;SDS011;50277;52.064;4.492;2022-11-22T07:10:54;6.30;;;2.90;;
64029;SDS011;50277;52.064;4.492;2022-11-22T07:13:19;6.38;;;2.78;;
64029;SDS011;50277;52.064;4.492;2022-11-22T07:15:58;7.68;;;3.10;;
64029;SDS011;50277;52.064;4.492;2022-11-22T07:18:24;5.32;;;3.33;;
64029;SDS011;50277;52.064;4.492;2022-11-22T07:20:50;5.03;;;3.00;;
64029;SDS011;50277;52.064;4.492;2022-11-22T07:23:16;7.03;;;3.40;;
64029;SDS011;50277;52.064;4.492;2022-11-22T07:25:45;5.80;;;2.97;;
64029;SDS011;50277;52.064;4.492;2022-11-22T07:28:11;6.88;;;3.25;;
64029;SDS011;50277;52.064;4.492;2022-11-22T07:30:37;11.45;;;3.20;;
64029;SDS011;50277;52.064;4.492;2022-11-22T07:33:03;8.73;;;3.28;;
64029;SDS011;50277;52.064;4.492;2022-11-22T07:35:28;10.43;;;3.40;;
64029;SDS011;50277;52.064;4.492;2022-11-22T07:37:53;11.52;;;3.45;;
64029;SDS011;50277;52.064;4.492;2022-11-22T07:40:19;7.55;;;3.45;;
64029;SDS011;50277;52.064;4.492;2022-11-22T07:42:44;6.25;;;3.25;;
64029;SDS011;50277;52.064;4.492;2022-11-22T07:45:10;9.52;;;3.28;;
64029;SDS011;50277;52.064;4.492;2022-11-22T07:47:35;12.95;;;4.15;;
64029;SDS011;50277;52.064;4.492;2022-11-22T07:50:00;7.18;;;2.88;;
64029;SDS011;50277;52.064;4.492;2022-11-22T07:52:26;8.43;;;4.22;;
64029;SDS011;50277;52.064;4.492;2022-11-22T07:54:51;10.32;;;2.92;;
64029;SDS011;50277;52.064;4.492;2022-11-22T07:57:16;7.65;;;3.15;;
64029;SDS011;50277;52.064;4.492;2022-11-22T07:59:41;9.90;;;3.65;;
64029;SDS011;50277;52.064;4.492;2022-11-22T08:02:09;15.60;;;3.75;;
64029;SDS011;50277;52.064;4.492;2022-11-22T08:04:35;12.82;;;3.33;;
64029;SDS011;50277;52.064;4.492;2022-11-22T08:07:01;8.80;;;3.17;;
64029;SDS011;50277;52.064;4.492;2022-11-22T08:09:26;13.43;;;3.22;;
64029;SDS011;50277;52.064;4.492;2022-11-22T08:11:51;7.70;;;3.00;;
64029;SDS011;50277;52.064;4.492;2022-11-22T08:14:16;9.20;;;3.25;;
64029;SDS011;50277;52.064;4.492;2022-11-22T08:16:42;8.98;;;3.13;;
64029;SDS011;50277;52.064;4.492;2022-11-22T08:19:07;7.30;;;3.15;;
64029;SDS011;50277;52.064;4.492;2022-11-22T08:21:32;8.80;;;3.40;;
64029;SDS011;50277;52.064;4.492;2022-11-22T08:23:58;7.60;;;2.70;;
64029;SDS011;50277;52.064;4.492;2022-11-22T08:26:23;9.90;;;2.97;;
64029;SDS011;50277;52.064;4.492;2022-11-22T08:28:49;6.40;;;2.63;;
64029;SDS011;50277;52.064;4.492;2022-11-22T08:31:16;10.75;;;3.75;;
64029;SDS011;50277;52.064;4.492;2022-11-22T08:33:45;8.75;;;2.85;;
64029;SDS011;50277;52.064;4.492;2022-11-22T08:36:10;8.05;;;2.97;;
64029;SDS011;50277;52.064;4.492;2022-11-22T08:38:36;7.50;;;2.50;;
64029;SDS011;50277;52.064;4.492;2022-11-22T08:41:02;11.18;;;2.92;;
64029;SDS011;50277;52.064;4.492;2022-11-22T08:43:28;4.45;;;2.40;;
64029;SDS011;50277;52.064;4.492;2022-11-22T08:45:54;7.28;;;2.88;;
64029;SDS011;50277;52.064;4.492;2022-11-22T08:48:21;11.57;;;3.03;;
64029;SDS011;50277;52.064;4.492;2022-11-22T08:51:19;7.40;;;2.97;;
64029;SDS011;50277;52.064;4.492;2022-11-22T08:53:39;7.57;;;2.83;;
64029;SDS011;50277;52.064;4.492;2022-11-22T08:56:07;9.35;;;2.75;;
64029;SDS011;50277;52.064;4.492;2022-11-22T08:58:34;7.30;;;3.00;;
64029;SDS011;50277;52.064;4.492;2022-11-22T09:01:07;9.82;;;2.95;;
64029;SDS011;50277;52.064;4.492;2022-11-22T09:03:34;7.45;;;2.60;;
64029;SDS011;50277;52.064;4.492;2022-11-22T09:06:07;10.73;;;3.05;;
64029;SDS011;50277;52.064;4.492;2022-11-22T09:08:34;8.13;;;2.53;;
64029;SDS011;50277;52.064;4.492;2022-11-22T09:11:03;6.63;;;2.45;;
64029;SDS011;50277;52.064;4.492;2022-11-22T09:13:31;9.93;;;2.50;;
64029;SDS011;50277;52.064;4.492;2022-11-22T09:16:00;8.27;;;2.85;;
64029;SDS011;50277;52.064;4.492;2022-11-22T09:18:29;7.75;;;2.67;;
64029;SDS011;50277;52.064;4.492;2022-11-22T09:20:58;7.38;;;2.92;;
64029;SDS011;50277;52.064;4.492;2022-11-22T09:23:24;5.15;;;2.53;;
64029;SDS011;50277;52.064;4.492;2022-11-22T09:25:56;5.80;;;2.42;;
64029;SDS011;50277;52.064;4.492;2022-11-22T09:28:22;5.72;;;3.08;;
64029;SDS011;50277;52.064;4.492;2022-11-22T09:30:47;6.53;;;2.97;;
64029;SDS011;50277;52.064;4.492;2022-11-22T09:33:13;5.63;;;2.53;;
64029;SDS011;50277;52.064;4.492;2022-11-22T09:35:38;4.70;;;2.40;;
64029;SDS011;50277;52.064;4.492;2022-11-22T09:38:03;9.18;;;2.90;;
64029;SDS011;50277;52.064;4.492;2022-11-22T09:40:29;5.60;;;3.00;;
64029;SDS011;50277;52.064;4.492;2022-11-22T09:45:44;7.88;;;2.53;;
64029;SDS011;50277;52.064;4.492;2022-11-22T09:50:59;9.88;;;3.10;;
64029;SDS011;50277;52.064;4.492;2022-11-22T09:53:44;9.75;;;2.40;;
64029;SDS011;50277;52.064;4.492;2022-11-22T09:56:16;6.57;;;2.67;;
64029;SDS011;50277;52.064;4.492;2022-11-22T09:58:43;14.43;;;3.50;;
64029;SDS011;50277;52.064;4.492;2022-11-22T10:06:34;6.70;;;2.47;;
64029;SDS011;50277;52.064;4.492;2022-11-22T10:09:15;8.20;;;2.97;;
64029;SDS011;50277;52.064;4.492;2022-11-22T10:11:52;9.77;;;2.95;;
64029;SDS011;50277;52.064;4.492;2022-11-22T10:17:15;7.53;;;2.35;;
64029;SDS011;50277;52.064;4.492;2022-11-22T10:19:52;7.55;;;2.80;;
64029;SDS011;50277;52.064;4.492;2022-11-22T10:22:24;9.85;;;2.50;;
64029;SDS011;50277;52.064;4.492;2022-11-22T10:24:53;7.78;;;2.70;;
64029;SDS011;50277;52.064;4.492;2022-11-22T10:27:18;5.45;;;2.78;;
64029;SDS011;50277;52.064;4.492;2022-11-22T10:32:33;6.90;;;2.45;;
64029;SDS011;50277;52.064;4.492;2022-11-22T10:43:27;8.80;;;3.25;;
64029;SDS011;50277;52.064;4.492;2022-11-22T10:45:58;29.33;;;3.58;;
64029;SDS011;50277;52.064;4.492;2022-11-22T10:53:58;6.55;;;2.70;;
64029;SDS011;50277;52.064;4.492;2022-11-22T10:59:19;5.97;;;2.38;;
64029;SDS011;50277;52.064;4.492;2022-11-22T11:02:17;12.93;;;2.33;;
64029;SDS011;50277;52.064;4.492;2022-11-22T11:04:47;5.15;;;2.50;;
64029;SDS011;50277;52.064;4.492;2022-11-22T11:07:15;9.25;;;2.55;;
64029;SDS011;50277;52.064;4.492;2022-11-22T11:09:42;7.43;;;2.58;;
64029;SDS011;50277;52.064;4.492;2022-11-22T11:15:03;7.13;;;2.40;;
64029;SDS011;50277;52.064;4.492;2022-11-22T11:17:31;6.22;;;2.35;;
64029;SDS011;50277;52.064;4.492;2022-11-22T11:20:00;7.97;;;2.30;;
64029;SDS011;50277;52.064;4.492;2022-11-22T11:22:29;8.07;;;2.25;;
64029;SDS011;50277;52.064;4.492;2022-11-22T11:24:56;10.45;;;3.00;;
64029;SDS011;50277;52.064;4.492;2022-11-22T11:27:51;13.45;;;2.50;;
64029;SDS011;50277;52.064;4.492;2022-11-22T11:30:17;7.47;;;2.45;;
64029;SDS011;50277;52.064;4.492;2022-11-22T11:32:52;5.25;;;1.85;;
64029;SDS011;50277;52.064;4.492;2022-11-22T11:35:20;7.55;;;2.00;;
64029;SDS011;50277;52.064;4.492;2022-11-22T11:37:51;9.57;;;2.60;;
64029;SDS011;50277;52.064;4.492;2022-11-22T11:40:27;6.03;;;2.22;;
64029;SDS011;50277;52.064;4.492;2022-11-22T11:45:44;8.65;;;2.70;;
64029;SDS011;50277;52.064;4.492;2022-11-22T11:48:29;6.43;;;2.30;;
64029;SDS011;50277;52.064;4.492;2022-11-22T11:51:12;7.78;;;2.60;;
64029;SDS011;50277;52.064;4.492;2022-11-22T11:53:39;5.82;;;2.30;;
64029;SDS011;50277;52.064;4.492;2022-11-22T11:56:16;7.20;;;2.55;;
64029;SDS011;50277;52.064;4.492;2022-11-22T11:58:47;9.50;;;2.78;;
64029;SDS011;50277;52.064;4.492;2022-11-22T12:01:17;10.80;;;2.63;;
64029;SDS011;50277;52.064;4.492;2022-11-22T12:03:49;7.90;;;2.67;;
64029;SDS011;50277;52.064;4.492;2022-11-22T12:06:15;7.15;;;2.80;;
64029;SDS011;50277;52.064;4.492;2022-11-22T12:08:41;4.47;;;2.28;;
64029;SDS011;50277;52.064;4.492;2022-11-22T12:11:08;6.80;;;2.50;;
64029;SDS011;50277;52.064;4.492;2022-11-22T12:13:37;4.90;;;2.53;;
64029;SDS011;50277;52.064;4.492;2022-11-22T12:16:20;5.40;;;2.65;;
64029;SDS011;50277;52.064;4.492;2022-11-22T12:21:43;5.20;;;2.67;;
64029;SDS011;50277;52.064;4.492;2022-11-22T12:24:24;13.77;;;2.97;;
64029;SDS011;50277;52.064;4.492;2022-11-22T12:26:56;5.10;;;2.70;;
64029;SDS011;50277;52.064;4.492;2022-11-22T12:29:22;6.03;;;2.47;;
64029;SDS011;50277;52.064;4.492;2022-11-22T12:34:24;5.45;;;2.30;;
64029;SDS011;50277;52.064;4.492;2022-11-22T12:36:57;7.25;;;2.60;;
64029;SDS011;50277;52.064;4.492;2022-11-22T12:39:26;8.63;;;2.65;;
64029;SDS011;50277;52.064;4.492;2022-11-22T12:41:54;6.15;;;2.42;;
64029;SDS011;50277;52.064;4.492;2022-11-22T12:44:34;8.82;;;2.25;;
64029;SDS011;50277;52.064;4.492;2022-11-22T12:47:05;6.57;;;2.10;;
64029;SDS011;50277;52.064;4.492;2022-11-22T12:49:38;5.63;;;2.58;;
64029;SDS011;50277;52.064;4.492;2022-11-22T12:54:51;6.88;;;2.83;;
64029;SDS011;50277;52.064;4.492;2022-11-22T12:57:36;6.10;;;2.80;;
64029;SDS011;50277;52.064;4.492;2022-11-22T13:02:43;3.45;;;1.85;;
64029;SDS011;50277;52.064;4.492;2022-11-22T13:05:22;7.00;;;2.08;;
64029;SDS011;50277;52.064;4.492;2022-11-22T13:10:48;6.45;;;2.28;;
64029;SDS011;50277;52.064;4.492;2022-11-22T13:13:42;9.18;;;2.90;;
64029;SDS011;50277;52.064;4.492;2022-11-22T13:16:10;7.35;;;2.30;;
64029;SDS011;50277;52.064;4.492;2022-11-22T13:18:37;5.75;;;2.67;;
64029;SDS011;50277;52.064;4.492;2022-11-22T13:30:00;3.67;;;2.20;;
64029;SDS011;50277;52.064;4.492;2022-11-22T13:32:32;9.93;;;2.40;;
64029;SDS011;50277;52.064;4.492;2022-11-22T13:35:06;3.42;;;2.30;;
64029;SDS011;50277;52.064;4.492;2022-11-22T13:37:44;6.63;;;2.72;;
64029;SDS011;50277;52.064;4.492;2022-11-22T13:51:04;3.80;;;2.70;;
64029;SDS011;50277;52.064;4.492;2022-11-22T13:53:34;3.75;;;2.28;;
64029;SDS011;50277;52.064;4.492;2022-11-22T14:06:44;4.78;;;2.38;;
64029;SDS011;50277;52.064;4.492;2022-11-22T14:09:37;2.53;;;1.52;;
64029;SDS011;50277;52.064;4.492;2022-11-22T14:23:17;5.47;;;2.28;;
64029;SDS011;50277;52.064;4.492;2022-11-22T14:26:03;5.13;;;2.35;;
64029;SDS011;50277;52.064;4.492;2022-11-22T14:31:28;4.82;;;2.45;;
64029;SDS011;50277;52.064;4.492;2022-11-22T14:34:17;6.85;;;2.58;;
64029;SDS011;50277;52.064;4.492;2022-11-22T14:36:41;3.50;;;1.90;;
64029;SDS011;50277;52.064;4.492;2022-11-22T14:47:38;3.20;;;2.40;;
64029;SDS011;50277;52.064;4.492;2022-11-22T14:50:13;5.95;;;2.90;;
64029;SDS011;50277;52.064;4.492;2022-11-22T14:52:46;7.30;;;2.85;;
64029;SDS011;50277;52.064;4.492;2022-11-22T14:55:20;4.38;;;2.35;;
64029;SDS011;50277;52.064;4.492;2022-11-22T14:57:50;4.03;;;2.63;;
64029;SDS011;50277;52.064;4.492;2022-11-22T15:00:23;5.88;;;2.40;;
64029;SDS011;50277;52.064;4.492;2022-11-22T15:05:35;2.33;;;2.13;;
64029;SDS011;50277;52.064;4.492;2022-11-22T15:18:49;4.15;;;2.40;;
64029;SDS011;50277;52.064;4.492;2022-11-22T15:21:16;3.40;;;2.28;;
64029;SDS011;50277;52.064;4.492;2022-11-22T15:23:58;3.58;;;2.15;;
64029;SDS011;50277;52.064;4.492;2022-11-22T15:26:25;5.05;;;2.30;;
64029;SDS011;50277;52.064;4.492;2022-11-22T15:28:55;3.53;;;2.33;;
64029;SDS011;50277;52.064;4.492;2022-11-22T15:31:23;2.33;;;2.22;;
64029;SDS011;50277;52.064;4.492;2022-11-22T15:34:01;4.38;;;2.45;;
64029;SDS011;50277;52.064;4.492;2022-11-22T15:39:09;4.90;;;2.90;;
64029;SDS011;50277;52.064;4.492;2022-11-22T15:41:37;4.05;;;2.40;;
64029;SDS011;50277;52.064;4.492;2022-11-22T15:44:04;4.28;;;2.38;;
64029;SDS011;50277;52.064;4.492;2022-11-22T15:46:30;3.92;;;2.60;;
64029;SDS011;50277;52.064;4.492;2022-11-22T15:48:56;3.63;;;2.08;;
64029;SDS011;50277;52.064;4.492;2022-11-22T15:51:27;3.63;;;2.22;;
64029;SDS011;50277;52.064;4.492;2022-11-22T15:56:38;4.25;;;2.72;;
64029;SDS011;50277;52.064;4.492;2022-11-22T16:02:00;4.35;;;2.75;;
64029;SDS011;50277;52.064;4.492;2022-11-22T16:04:30;6.68;;;2.60;;
64029;SDS011;50277;52.064;4.492;2022-11-22T16:06:59;7.13;;;2.90;;
64029;SDS011;50277;52.064;4.492;2022-11-22T16:09:26;3.60;;;2.85;;
64029;SDS011;50277;52.064;4.492;2022-11-22T16:11:54;4.57;;;3.30;;
64029;SDS011;50277;52.064;4.492;2022-11-22T16:28:41;3.45;;;2.85;;
64029;SDS011;50277;52.064;4.492;2022-11-22T16:31:15;3.50;;;3.00;;
64029;SDS011;50277;52.064;4.492;2022-11-22T16:33:45;6.45;;;3.60;;
64029;SDS011;50277;52.064;4.492;2022-11-22T16:36:12;6.22;;;3.90;;
64029;SDS011;50277;52.064;4.492;2022-11-22T16:38:38;9.90;;;4.27;;
64029;SDS011;50277;52.064;4.492;2022-11-22T16:41:16;4.38;;;3.92;;
64029;SDS011;50277;52.064;4.492;2022-11-22T16:43:43;6.13;;;3.83;;
64029;SDS011;50277;52.064;4.492;2022-11-22T16:46:09;5.82;;;3.55;;
64029;SDS011;50277;52.064;4.492;2022-11-22T16:48:37;5.80;;;4.00;;
64029;SDS011;50277;52.064;4.492;2022-11-22T16:51:03;7.50;;;4.00;;
64029;SDS011;50277;52.064;4.492;2022-11-22T16:53:38;3.92;;;3.33;;
64029;SDS011;50277;52.064;4.492;2022-11-22T16:56:05;4.15;;;3.63;;
64029;SDS011;50277;52.064;4.492;2022-11-22T16:58:31;5.22;;;3.63;;
64029;SDS011;50277;52.064;4.492;2022-11-22T17:00:56;6.72;;;3.92;;
64029;SDS011;50277;52.064;4.492;2022-11-22T17:03:22;7.20;;;4.05;;
64029;SDS011;50277;52.064;4.492;2022-11-22T17:05:50;5.53;;;4.00;;
64029;SDS011;50277;52.064;4.492;2022-11-22T17:08:16;6.00;;;3.40;;
64029;SDS011;50277;52.064;4.492;2022-11-22T17:10:43;6.70;;;3.60;;
64029;SDS011;50277;52.064;4.492;2022-11-22T17:13:13;5.18;;;3.22;;
64029;SDS011;50277;52.064;4.492;2022-11-22T17:15:42;7.72;;;4.10;;
64029;SDS011;50277;52.064;4.492;2022-11-22T17:18:08;4.18;;;3.72;;